sensor_id;sensor_type;location;lat;lon;timestamp;P1;durP1;ratioP1;P2;durP2;ratioP2
76978;SDS011;65911;47.502;19.148;2023-12-20T00:01:12;22.77;;;9.97;;
76978;SDS011;65911;47.502;19.148;2023-12-20T00:04:15;21.10;;;9.60;;
76978;SDS011;65911;47.502;19.148;2023-12-20T00:07:17;22.10;;;10.25;;
76978;SDS011;65911;47.502;19.148;2023-12-20T00:10:20;21.50;;;9.35;;
76978;SDS011;65911;47.502;19.148;2023-12-20T00:13:22;21.13;;;10.05;;
76978;SDS011;65911;47.502;19.148;2023-12-20T00:16:24;21.95;;;9.60;;
76978;SDS011;65911;47.502;19.148;2023-12-20T00:19:26;22.45;;;10.77;;
76978;SDS011;65911;47.502;19.148;2023-12-20T00:22:29;22.20;;;10.27;;
76978;SDS011;65911;47.502;19.148;2023-12-20T00:25:31;22.65;;;10.10;;
76978;SDS011;65911;47.502;19.148;2023-12-20T00:28:33;22.65;;;10.02;;
76978;SDS011;65911;47.502;19.148;2023-12-20T00:31:36;22.37;;;9.57;;
76978;SDS011;65911;47.502;19.148;2023-12-20T00:34:38;23.98;;;10.10;;
76978;SDS011;65911;47.502;19.148;2023-12-20T00:37:40;21.90;;;10.07;;
76978;SDS011;65911;47.502;19.148;2023-12-20T00:40:43;23.13;;;10.13;;
76978;SDS011;65911;47.502;19.148;2023-12-20T00:43:45;22.70;;;9.65;;
76978;SDS011;65911;47.502;19.148;2023-12-20T00:46:48;22.73;;;9.82;;
76978;SDS011;65911;47.502;19.148;2023-12-20T00:49:50;20.40;;;10.23;;
76978;SDS011;65911;47.502;19.148;2023-12-20T00:52:52;21.77;;;9.63;;
76978;SDS011;65911;47.502;19.148;2023-12-20T00:55:56;25.15;;;10.35;;
76978;SDS011;65911;47.502;19.148;2023-12-20T00:59:00;24.17;;;9.70;;
76978;SDS011;65911;47.502;19.148;2023-12-20T01:02:03;23.43;;;10.70;;
76978;SDS011;65911;47.502;19.148;2023-12-20T01:05:05;21.77;;;10.02;;
76978;SDS011;65911;47.502;19.148;2023-12-20T01:08:09;25.35;;;10.48;;
76978;SDS011;65911;47.502;19.148;2023-12-20T01:11:11;23.90;;;10.23;;
76978;SDS011;65911;47.502;19.148;2023-12-20T01:14:13;24.35;;;10.23;;
76978;SDS011;65911;47.502;19.148;2023-12-20T01:17:15;21.95;;;10.27;;
76978;SDS011;65911;47.502;19.148;2023-12-20T01:20:18;25.15;;;10.77;;
76978;SDS011;65911;47.502;19.148;2023-12-20T01:23:22;25.23;;;10.17;;
76978;SDS011;65911;47.502;19.148;2023-12-20T01:26:24;26.27;;;11.13;;
76978;SDS011;65911;47.502;19.148;2023-12-20T01:29:27;23.77;;;10.63;;
76978;SDS011;65911;47.502;19.148;2023-12-20T01:32:29;23.60;;;9.83;;
76978;SDS011;65911;47.502;19.148;2023-12-20T01:35:31;26.20;;;10.52;;
76978;SDS011;65911;47.502;19.148;2023-12-20T01:38:33;28.27;;;11.00;;
76978;SDS011;65911;47.502;19.148;2023-12-20T01:41:36;26.55;;;11.20;;
76978;SDS011;65911;47.502;19.148;2023-12-20T01:44:38;26.85;;;10.95;;
76978;SDS011;65911;47.502;19.148;2023-12-20T01:47:41;27.98;;;10.95;;
76978;SDS011;65911;47.502;19.148;2023-12-20T01:50:43;26.83;;;11.05;;
76978;SDS011;65911;47.502;19.148;2023-12-20T01:53:47;28.10;;;10.47;;
76978;SDS011;65911;47.502;19.148;2023-12-20T01:56:50;27.92;;;11.10;;
76978;SDS011;65911;47.502;19.148;2023-12-20T01:59:52;27.88;;;10.82;;
76978;SDS011;65911;47.502;19.148;2023-12-20T02:02:54;28.80;;;11.03;;
76978;SDS011;65911;47.502;19.148;2023-12-20T02:05:57;27.23;;;10.85;;
76978;SDS011;65911;47.502;19.148;2023-12-20T02:08:59;29.63;;;12.48;;
76978;SDS011;65911;47.502;19.148;2023-12-20T02:12:02;30.60;;;11.60;;
76978;SDS011;65911;47.502;19.148;2023-12-20T02:15:04;28.27;;;11.65;;
76978;SDS011;65911;47.502;19.148;2023-12-20T02:18:07;31.38;;;11.88;;
76978;SDS011;65911;47.502;19.148;2023-12-20T02:21:09;31.60;;;12.05;;
76978;SDS011;65911;47.502;19.148;2023-12-20T02:24:12;24.57;;;10.80;;
76978;SDS011;65911;47.502;19.148;2023-12-20T02:27:14;31.25;;;11.70;;
76978;SDS011;65911;47.502;19.148;2023-12-20T02:30:17;28.63;;;11.25;;
76978;SDS011;65911;47.502;19.148;2023-12-20T02:33:19;29.37;;;10.93;;
76978;SDS011;65911;47.502;19.148;2023-12-20T02:36:22;29.02;;;11.02;;
76978;SDS011;65911;47.502;19.148;2023-12-20T02:39:24;27.13;;;10.80;;
76978;SDS011;65911;47.502;19.148;2023-12-20T02:42:26;29.90;;;11.73;;
76978;SDS011;65911;47.502;19.148;2023-12-20T02:45:28;30.77;;;11.40;;
76978;SDS011;65911;47.502;19.148;2023-12-20T02:48:31;31.50;;;12.25;;
76978;SDS011;65911;47.502;19.148;2023-12-20T02:51:33;30.27;;;11.52;;
76978;SDS011;65911;47.502;19.148;2023-12-20T02:54:35;27.63;;;11.30;;
76978;SDS011;65911;47.502;19.148;2023-12-20T02:57:38;27.85;;;11.50;;
76978;SDS011;65911;47.502;19.148;2023-12-20T03:00:44;30.85;;;12.07;;
76978;SDS011;65911;47.502;19.148;2023-12-20T03:03:46;29.17;;;11.37;;
76978;SDS011;65911;47.502;19.148;2023-12-20T03:06:48;29.25;;;11.15;;
76978;SDS011;65911;47.502;19.148;2023-12-20T03:09:51;27.55;;;12.52;;
76978;SDS011;65911;47.502;19.148;2023-12-20T03:13:13;28.70;;;12.30;;
76978;SDS011;65911;47.502;19.148;2023-12-20T03:16:16;27.67;;;13.35;;
76978;SDS011;65911;47.502;19.148;2023-12-20T03:19:18;29.67;;;12.73;;
76978;SDS011;65911;47.502;19.148;2023-12-20T03:22:21;29.55;;;13.25;;
76978;SDS011;65911;47.502;19.148;2023-12-20T03:25:23;31.33;;;13.67;;
76978;SDS011;65911;47.502;19.148;2023-12-20T03:28:26;29.33;;;12.65;;
76978;SDS011;65911;47.502;19.148;2023-12-20T03:31:29;29.77;;;13.13;;
76978;SDS011;65911;47.502;19.148;2023-12-20T03:34:31;28.77;;;12.73;;
76978;SDS011;65911;47.502;19.148;2023-12-20T03:37:34;30.98;;;12.88;;
76978;SDS011;65911;47.502;19.148;2023-12-20T03:40:36;31.10;;;13.05;;
76978;SDS011;65911;47.502;19.148;2023-12-20T03:43:38;32.88;;;13.57;;
76978;SDS011;65911;47.502;19.148;2023-12-20T03:46:41;32.53;;;13.23;;
76978;SDS011;65911;47.502;19.148;2023-12-20T03:49:43;32.78;;;13.38;;
76978;SDS011;65911;47.502;19.148;2023-12-20T03:52:45;32.85;;;13.43;;
76978;SDS011;65911;47.502;19.148;2023-12-20T03:55:48;30.10;;;13.33;;
76978;SDS011;65911;47.502;19.148;2023-12-20T03:58:50;28.98;;;13.75;;
76978;SDS011;65911;47.502;19.148;2023-12-20T04:01:52;33.67;;;13.02;;
76978;SDS011;65911;47.502;19.148;2023-12-20T04:04:54;32.87;;;13.13;;
76978;SDS011;65911;47.502;19.148;2023-12-20T04:07:57;30.08;;;13.23;;
76978;SDS011;65911;47.502;19.148;2023-12-20T04:11:01;29.67;;;13.02;;
76978;SDS011;65911;47.502;19.148;2023-12-20T04:14:03;28.25;;;12.48;;
76978;SDS011;65911;47.502;19.148;2023-12-20T04:17:09;33.08;;;13.07;;
76978;SDS011;65911;47.502;19.148;2023-12-20T04:20:11;31.45;;;13.40;;
76978;SDS011;65911;47.502;19.148;2023-12-20T04:23:14;32.75;;;13.57;;
76978;SDS011;65911;47.502;19.148;2023-12-20T04:26:16;26.87;;;12.33;;
76978;SDS011;65911;47.502;19.148;2023-12-20T04:29:18;30.63;;;13.43;;
76978;SDS011;65911;47.502;19.148;2023-12-20T04:32:20;29.48;;;12.73;;
76978;SDS011;65911;47.502;19.148;2023-12-20T04:35:25;27.37;;;12.10;;
76978;SDS011;65911;47.502;19.148;2023-12-20T04:38:28;26.10;;;12.27;;
76978;SDS011;65911;47.502;19.148;2023-12-20T04:41:30;31.17;;;13.82;;
76978;SDS011;65911;47.502;19.148;2023-12-20T04:44:32;29.48;;;13.18;;
76978;SDS011;65911;47.502;19.148;2023-12-20T04:47:34;27.05;;;12.00;;
76978;SDS011;65911;47.502;19.148;2023-12-20T04:50:37;28.90;;;12.45;;
76978;SDS011;65911;47.502;19.148;2023-12-20T04:53:39;29.88;;;12.95;;
76978;SDS011;65911;47.502;19.148;2023-12-20T04:56:41;30.07;;;13.13;;
76978;SDS011;65911;47.502;19.148;2023-12-20T04:59:44;27.63;;;12.63;;
76978;SDS011;65911;47.502;19.148;2023-12-20T05:02:46;28.20;;;12.30;;
76978;SDS011;65911;47.502;19.148;2023-12-20T05:05:48;31.70;;;13.23;;
76978;SDS011;65911;47.502;19.148;2023-12-20T05:08:51;29.35;;;13.00;;
76978;SDS011;65911;47.502;19.148;2023-12-20T05:11:53;31.13;;;13.77;;
76978;SDS011;65911;47.502;19.148;2023-12-20T05:14:55;30.55;;;13.23;;
76978;SDS011;65911;47.502;19.148;2023-12-20T05:17:58;33.83;;;14.13;;
76978;SDS011;65911;47.502;19.148;2023-12-20T05:21:00;28.27;;;13.02;;
76978;SDS011;65911;47.502;19.148;2023-12-20T05:24:02;29.55;;;13.93;;
76978;SDS011;65911;47.502;19.148;2023-12-20T05:27:05;33.23;;;14.03;;
76978;SDS011;65911;47.502;19.148;2023-12-20T05:30:07;32.65;;;14.38;;
76978;SDS011;65911;47.502;19.148;2023-12-20T05:33:10;31.17;;;13.57;;
76978;SDS011;65911;47.502;19.148;2023-12-20T05:36:12;28.30;;;13.03;;
76978;SDS011;65911;47.502;19.148;2023-12-20T05:39:17;32.88;;;15.10;;
76978;SDS011;65911;47.502;19.148;2023-12-20T05:42:19;32.00;;;14.18;;
76978;SDS011;65911;47.502;19.148;2023-12-20T05:45:21;34.38;;;14.07;;
76978;SDS011;65911;47.502;19.148;2023-12-20T05:48:23;31.58;;;14.18;;
76978;SDS011;65911;47.502;19.148;2023-12-20T05:51:26;30.58;;;14.30;;
76978;SDS011;65911;47.502;19.148;2023-12-20T05:54:28;35.58;;;14.32;;
76978;SDS011;65911;47.502;19.148;2023-12-20T05:57:30;30.10;;;13.60;;
76978;SDS011;65911;47.502;19.148;2023-12-20T06:00:33;33.90;;;14.55;;
76978;SDS011;65911;47.502;19.148;2023-12-20T06:03:35;33.65;;;14.50;;
76978;SDS011;65911;47.502;19.148;2023-12-20T06:06:43;33.80;;;14.20;;
76978;SDS011;65911;47.502;19.148;2023-12-20T06:09:46;36.15;;;14.13;;
76978;SDS011;65911;47.502;19.148;2023-12-20T06:12:48;33.63;;;14.65;;
76978;SDS011;65911;47.502;19.148;2023-12-20T06:15:56;32.53;;;14.63;;
76978;SDS011;65911;47.502;19.148;2023-12-20T06:18:58;33.50;;;14.35;;
76978;SDS011;65911;47.502;19.148;2023-12-20T06:22:01;34.08;;;14.73;;
76978;SDS011;65911;47.502;19.148;2023-12-20T06:25:03;30.73;;;15.18;;
76978;SDS011;65911;47.502;19.148;2023-12-20T06:28:06;34.60;;;14.30;;
76978;SDS011;65911;47.502;19.148;2023-12-20T06:31:08;38.53;;;15.40;;
76978;SDS011;65911;47.502;19.148;2023-12-20T06:34:11;34.53;;;15.57;;
76978;SDS011;65911;47.502;19.148;2023-12-20T06:37:13;35.30;;;16.00;;
76978;SDS011;65911;47.502;19.148;2023-12-20T06:40:17;34.55;;;14.77;;
76978;SDS011;65911;47.502;19.148;2023-12-20T06:43:20;34.60;;;14.65;;
76978;SDS011;65911;47.502;19.148;2023-12-20T06:46:43;34.80;;;15.70;;
76978;SDS011;65911;47.502;19.148;2023-12-20T06:49:45;36.72;;;15.38;;
76978;SDS011;65911;47.502;19.148;2023-12-20T06:52:48;37.30;;;15.05;;
76978;SDS011;65911;47.502;19.148;2023-12-20T06:55:50;33.20;;;15.07;;
76978;SDS011;65911;47.502;19.148;2023-12-20T06:58:53;33.40;;;14.43;;
76978;SDS011;65911;47.502;19.148;2023-12-20T07:01:55;32.97;;;13.32;;
76978;SDS011;65911;47.502;19.148;2023-12-20T07:04:57;31.95;;;13.10;;
76978;SDS011;65911;47.502;19.148;2023-12-20T07:08:00;31.97;;;13.47;;
76978;SDS011;65911;47.502;19.148;2023-12-20T07:11:05;30.02;;;12.90;;
76978;SDS011;65911;47.502;19.148;2023-12-20T07:14:08;30.27;;;13.38;;
76978;SDS011;65911;47.502;19.148;2023-12-20T07:17:10;35.30;;;13.93;;
76978;SDS011;65911;47.502;19.148;2023-12-20T07:20:15;36.58;;;14.32;;
76978;SDS011;65911;47.502;19.148;2023-12-20T07:23:17;30.92;;;13.50;;
76978;SDS011;65911;47.502;19.148;2023-12-20T07:26:21;32.13;;;13.55;;
76978;SDS011;65911;47.502;19.148;2023-12-20T07:29:25;35.17;;;13.80;;
76978;SDS011;65911;47.502;19.148;2023-12-20T07:32:27;31.67;;;13.77;;
76978;SDS011;65911;47.502;19.148;2023-12-20T07:35:30;34.25;;;13.63;;
76978;SDS011;65911;47.502;19.148;2023-12-20T07:38:32;33.00;;;13.33;;
76978;SDS011;65911;47.502;19.148;2023-12-20T07:41:35;32.33;;;13.52;;
76978;SDS011;65911;47.502;19.148;2023-12-20T07:44:37;31.80;;;13.68;;
76978;SDS011;65911;47.502;19.148;2023-12-20T07:47:46;32.60;;;13.68;;
76978;SDS011;65911;47.502;19.148;2023-12-20T07:50:49;32.88;;;13.30;;
76978;SDS011;65911;47.502;19.148;2023-12-20T07:53:51;33.45;;;13.88;;
76978;SDS011;65911;47.502;19.148;2023-12-20T07:56:57;35.75;;;13.68;;
76978;SDS011;65911;47.502;19.148;2023-12-20T07:59:59;30.70;;;13.10;;
76978;SDS011;65911;47.502;19.148;2023-12-20T08:03:01;31.35;;;13.15;;
76978;SDS011;65911;47.502;19.148;2023-12-20T08:06:05;33.42;;;13.73;;
76978;SDS011;65911;47.502;19.148;2023-12-20T08:09:08;34.23;;;13.63;;
76978;SDS011;65911;47.502;19.148;2023-12-20T08:12:10;38.13;;;14.90;;
76978;SDS011;65911;47.502;19.148;2023-12-20T08:15:13;35.28;;;14.23;;
76978;SDS011;65911;47.502;19.148;2023-12-20T08:18:16;34.60;;;14.85;;
76978;SDS011;65911;47.502;19.148;2023-12-20T08:21:18;39.17;;;15.50;;
76978;SDS011;65911;47.502;19.148;2023-12-20T08:24:22;40.20;;;14.82;;
76978;SDS011;65911;47.502;19.148;2023-12-20T08:27:24;37.05;;;15.10;;
76978;SDS011;65911;47.502;19.148;2023-12-20T08:30:27;38.67;;;14.30;;
76978;SDS011;65911;47.502;19.148;2023-12-20T08:33:30;43.00;;;15.77;;
76978;SDS011;65911;47.502;19.148;2023-12-20T08:36:32;37.47;;;15.00;;
76978;SDS011;65911;47.502;19.148;2023-12-20T08:39:34;38.40;;;15.97;;
76978;SDS011;65911;47.502;19.148;2023-12-20T08:42:37;35.42;;;15.25;;
76978;SDS011;65911;47.502;19.148;2023-12-20T08:45:39;40.20;;;15.25;;
76978;SDS011;65911;47.502;19.148;2023-12-20T08:48:42;44.17;;;16.17;;
76978;SDS011;65911;47.502;19.148;2023-12-20T08:51:46;41.17;;;15.38;;
76978;SDS011;65911;47.502;19.148;2023-12-20T08:54:48;47.08;;;16.83;;
76978;SDS011;65911;47.502;19.148;2023-12-20T08:57:55;45.10;;;16.42;;
76978;SDS011;65911;47.502;19.148;2023-12-20T09:00:57;42.90;;;15.90;;
76978;SDS011;65911;47.502;19.148;2023-12-20T09:04:00;46.45;;;17.50;;
76978;SDS011;65911;47.502;19.148;2023-12-20T09:07:11;41.90;;;15.98;;
76978;SDS011;65911;47.502;19.148;2023-12-20T09:10:26;42.77;;;16.47;;
76978;SDS011;65911;47.502;19.148;2023-12-20T09:13:29;44.05;;;16.90;;
76978;SDS011;65911;47.502;19.148;2023-12-20T09:16:31;45.42;;;16.73;;
76978;SDS011;65911;47.502;19.148;2023-12-20T09:19:33;43.25;;;17.33;;
76978;SDS011;65911;47.502;19.148;2023-12-20T09:22:36;47.55;;;16.70;;
76978;SDS011;65911;47.502;19.148;2023-12-20T09:25:40;46.88;;;18.02;;
76978;SDS011;65911;47.502;19.148;2023-12-20T09:28:42;39.30;;;16.27;;
76978;SDS011;65911;47.502;19.148;2023-12-20T09:31:44;40.90;;;16.87;;
76978;SDS011;65911;47.502;19.148;2023-12-20T09:34:48;42.75;;;17.35;;
76978;SDS011;65911;47.502;19.148;2023-12-20T09:37:51;44.40;;;17.67;;
76978;SDS011;65911;47.502;19.148;2023-12-20T09:40:53;43.57;;;16.20;;
76978;SDS011;65911;47.502;19.148;2023-12-20T09:43:56;36.75;;;14.73;;
76978;SDS011;65911;47.502;19.148;2023-12-20T09:47:04;41.45;;;14.93;;
76978;SDS011;65911;47.502;19.148;2023-12-20T09:50:07;65.00;;;20.98;;
76978;SDS011;65911;47.502;19.148;2023-12-20T09:53:11;78.45;;;18.58;;
76978;SDS011;65911;47.502;19.148;2023-12-20T09:56:16;71.80;;;15.88;;
76978;SDS011;65911;47.502;19.148;2023-12-20T09:59:19;55.83;;;14.02;;
76978;SDS011;65911;47.502;19.148;2023-12-20T10:02:21;36.80;;;11.63;;
76978;SDS011;65911;47.502;19.148;2023-12-20T10:05:29;38.70;;;15.20;;
76978;SDS011;65911;47.502;19.148;2023-12-20T10:08:36;40.17;;;14.73;;
76978;SDS011;65911;47.502;19.148;2023-12-20T10:11:38;40.13;;;15.40;;
76978;SDS011;65911;47.502;19.148;2023-12-20T10:14:41;45.72;;;14.75;;
76978;SDS011;65911;47.502;19.148;2023-12-20T10:17:43;47.95;;;15.50;;
76978;SDS011;65911;47.502;19.148;2023-12-20T10:20:46;46.47;;;16.35;;
76978;SDS011;65911;47.502;19.148;2023-12-20T10:23:49;42.30;;;16.63;;
76978;SDS011;65911;47.502;19.148;2023-12-20T10:27:04;48.20;;;16.50;;
76978;SDS011;65911;47.502;19.148;2023-12-20T10:30:06;46.38;;;16.73;;
76978;SDS011;65911;47.502;19.148;2023-12-20T10:33:09;40.40;;;15.47;;
76978;SDS011;65911;47.502;19.148;2023-12-20T10:36:12;52.58;;;18.60;;
76978;SDS011;65911;47.502;19.148;2023-12-20T10:39:15;87.85;;;35.15;;
76978;SDS011;65911;47.502;19.148;2023-12-20T10:42:20;71.43;;;31.43;;
76978;SDS011;65911;47.502;19.148;2023-12-20T10:45:23;185.80;;;34.50;;
76978;SDS011;65911;47.502;19.148;2023-12-20T10:48:26;589.28;;;58.70;;
76978;SDS011;65911;47.502;19.148;2023-12-20T10:51:32;197.25;;;26.15;;
76978;SDS011;65911;47.502;19.148;2023-12-20T10:54:36;81.88;;;21.63;;
76978;SDS011;65911;47.502;19.148;2023-12-20T10:57:39;57.33;;;20.05;;
76978;SDS011;65911;47.502;19.148;2023-12-20T11:00:41;58.83;;;21.60;;
76978;SDS011;65911;47.502;19.148;2023-12-20T11:03:51;55.37;;;20.10;;
76978;SDS011;65911;47.502;19.148;2023-12-20T11:10:30;56.53;;;21.45;;
76978;SDS011;65911;47.502;19.148;2023-12-20T11:13:59;60.27;;;21.40;;
76978;SDS011;65911;47.502;19.148;2023-12-20T11:20:18;50.05;;;20.77;;
76978;SDS011;65911;47.502;19.148;2023-12-20T11:23:20;47.42;;;19.52;;
76978;SDS011;65911;47.502;19.148;2023-12-20T11:26:27;46.90;;;19.80;;
76978;SDS011;65911;47.502;19.148;2023-12-20T11:29:36;48.63;;;20.50;;
76978;SDS011;65911;47.502;19.148;2023-12-20T11:32:39;48.53;;;20.70;;
76978;SDS011;65911;47.502;19.148;2023-12-20T11:35:42;51.00;;;20.53;;
76978;SDS011;65911;47.502;19.148;2023-12-20T11:38:57;47.35;;;19.65;;
76978;SDS011;65911;47.502;19.148;2023-12-20T11:42:04;51.67;;;20.42;;
76978;SDS011;65911;47.502;19.148;2023-12-20T11:45:10;49.27;;;20.50;;
76978;SDS011;65911;47.502;19.148;2023-12-20T11:48:16;52.20;;;22.15;;
76978;SDS011;65911;47.502;19.148;2023-12-20T11:51:19;45.70;;;20.05;;
76978;SDS011;65911;47.502;19.148;2023-12-20T11:54:21;48.42;;;20.17;;
76978;SDS011;65911;47.502;19.148;2023-12-20T11:57:27;50.38;;;20.67;;
76978;SDS011;65911;47.502;19.148;2023-12-20T12:00:29;53.05;;;22.08;;
76978;SDS011;65911;47.502;19.148;2023-12-20T12:03:32;52.60;;;21.85;;
76978;SDS011;65911;47.502;19.148;2023-12-20T12:06:34;54.17;;;21.17;;
76978;SDS011;65911;47.502;19.148;2023-12-20T12:09:37;54.75;;;22.23;;
76978;SDS011;65911;47.502;19.148;2023-12-20T12:12:40;57.28;;;22.38;;
76978;SDS011;65911;47.502;19.148;2023-12-20T12:15:42;55.50;;;22.80;;
76978;SDS011;65911;47.502;19.148;2023-12-20T12:18:45;57.58;;;24.10;;
76978;SDS011;65911;47.502;19.148;2023-12-20T12:21:47;53.10;;;21.90;;
76978;SDS011;65911;47.502;19.148;2023-12-20T12:24:50;49.90;;;22.23;;
76978;SDS011;65911;47.502;19.148;2023-12-20T12:27:52;58.20;;;23.50;;
76978;SDS011;65911;47.502;19.148;2023-12-20T12:30:58;52.58;;;21.80;;
76978;SDS011;65911;47.502;19.148;2023-12-20T12:34:01;49.50;;;21.30;;
76978;SDS011;65911;47.502;19.148;2023-12-20T12:37:04;48.20;;;21.53;;
76978;SDS011;65911;47.502;19.148;2023-12-20T12:40:09;50.50;;;22.70;;
76978;SDS011;65911;47.502;19.148;2023-12-20T12:43:22;51.42;;;22.27;;
76978;SDS011;65911;47.502;19.148;2023-12-20T12:46:25;48.37;;;21.87;;
76978;SDS011;65911;47.502;19.148;2023-12-20T12:49:29;47.38;;;20.67;;
76978;SDS011;65911;47.502;19.148;2023-12-20T12:52:33;49.88;;;21.30;;
76978;SDS011;65911;47.502;19.148;2023-12-20T12:55:35;47.03;;;20.27;;
76978;SDS011;65911;47.502;19.148;2023-12-20T12:58:38;47.25;;;19.45;;
76978;SDS011;65911;47.502;19.148;2023-12-20T13:01:40;40.78;;;18.85;;
76978;SDS011;65911;47.502;19.148;2023-12-20T13:04:43;36.13;;;16.80;;
76978;SDS011;65911;47.502;19.148;2023-12-20T13:07:45;39.13;;;16.87;;
76978;SDS011;65911;47.502;19.148;2023-12-20T13:10:48;32.15;;;15.50;;
76978;SDS011;65911;47.502;19.148;2023-12-20T13:13:51;38.22;;;16.95;;
76978;SDS011;65911;47.502;19.148;2023-12-20T13:16:53;34.67;;;15.47;;
76978;SDS011;65911;47.502;19.148;2023-12-20T13:19:56;33.05;;;15.45;;
76978;SDS011;65911;47.502;19.148;2023-12-20T13:22:58;34.20;;;16.85;;
76978;SDS011;65911;47.502;19.148;2023-12-20T13:26:01;35.47;;;15.30;;
76978;SDS011;65911;47.502;19.148;2023-12-20T13:29:04;30.75;;;15.15;;
76978;SDS011;65911;47.502;19.148;2023-12-20T13:32:07;36.90;;;15.27;;
76978;SDS011;65911;47.502;19.148;2023-12-20T13:35:09;27.67;;;13.80;;
76978;SDS011;65911;47.502;19.148;2023-12-20T13:38:12;34.77;;;15.27;;
76978;SDS011;65911;47.502;19.148;2023-12-20T13:41:15;32.70;;;14.80;;
76978;SDS011;65911;47.502;19.148;2023-12-20T13:44:18;31.45;;;15.27;;
76978;SDS011;65911;47.502;19.148;2023-12-20T13:47:21;24.13;;;13.10;;
76978;SDS011;65911;47.502;19.148;2023-12-20T13:50:25;19.33;;;10.07;;
76978;SDS011;65911;47.502;19.148;2023-12-20T13:53:29;23.42;;;11.02;;
76978;SDS011;65911;47.502;19.148;2023-12-20T13:56:31;23.25;;;10.48;;
76978;SDS011;65911;47.502;19.148;2023-12-20T13:59:47;15.63;;;8.27;;
76978;SDS011;65911;47.502;19.148;2023-12-20T14:02:50;17.67;;;8.82;;
76978;SDS011;65911;47.502;19.148;2023-12-20T14:05:52;17.23;;;8.40;;
76978;SDS011;65911;47.502;19.148;2023-12-20T14:08:55;15.50;;;8.43;;
76978;SDS011;65911;47.502;19.148;2023-12-20T14:11:57;13.13;;;7.97;;
76978;SDS011;65911;47.502;19.148;2023-12-20T14:14:59;15.77;;;7.97;;
76978;SDS011;65911;47.502;19.148;2023-12-20T14:18:02;15.00;;;7.87;;
76978;SDS011;65911;47.502;19.148;2023-12-20T14:21:08;16.30;;;8.10;;
76978;SDS011;65911;47.502;19.148;2023-12-20T14:24:10;12.00;;;6.90;;
76978;SDS011;65911;47.502;19.148;2023-12-20T14:27:12;12.55;;;6.93;;
76978;SDS011;65911;47.502;19.148;2023-12-20T14:30:15;13.13;;;7.60;;
76978;SDS011;65911;47.502;19.148;2023-12-20T14:33:19;12.88;;;6.93;;
76978;SDS011;65911;47.502;19.148;2023-12-20T14:36:23;12.95;;;7.07;;
76978;SDS011;65911;47.502;19.148;2023-12-20T14:39:26;12.80;;;6.63;;
76978;SDS011;65911;47.502;19.148;2023-12-20T14:42:28;15.27;;;6.97;;
76978;SDS011;65911;47.502;19.148;2023-12-20T14:45:30;12.30;;;6.53;;
76978;SDS011;65911;47.502;19.148;2023-12-20T14:48:32;12.47;;;7.60;;
76978;SDS011;65911;47.502;19.148;2023-12-20T14:51:35;12.93;;;6.78;;
76978;SDS011;65911;47.502;19.148;2023-12-20T14:54:39;12.40;;;6.43;;
76978;SDS011;65911;47.502;19.148;2023-12-20T14:57:44;11.80;;;6.22;;
76978;SDS011;65911;47.502;19.148;2023-12-20T15:00:46;9.98;;;6.30;;
76978;SDS011;65911;47.502;19.148;2023-12-20T15:03:48;10.68;;;6.13;;
76978;SDS011;65911;47.502;19.148;2023-12-20T15:06:51;9.63;;;5.68;;
76978;SDS011;65911;47.502;19.148;2023-12-20T15:09:54;10.53;;;5.47;;
76978;SDS011;65911;47.502;19.148;2023-12-20T15:12:56;10.50;;;5.65;;
76978;SDS011;65911;47.502;19.148;2023-12-20T15:15:58;7.75;;;4.55;;
76978;SDS011;65911;47.502;19.148;2023-12-20T15:19:01;8.83;;;4.87;;
76978;SDS011;65911;47.502;19.148;2023-12-20T15:22:05;8.88;;;4.80;;
76978;SDS011;65911;47.502;19.148;2023-12-20T15:25:07;9.38;;;4.47;;
76978;SDS011;65911;47.502;19.148;2023-12-20T15:28:10;9.93;;;4.78;;
76978;SDS011;65911;47.502;19.148;2023-12-20T15:31:13;7.65;;;4.60;;
76978;SDS011;65911;47.502;19.148;2023-12-20T15:34:15;7.43;;;4.80;;
76978;SDS011;65911;47.502;19.148;2023-12-20T15:37:18;7.80;;;4.95;;
76978;SDS011;65911;47.502;19.148;2023-12-20T15:40:20;7.60;;;4.60;;
76978;SDS011;65911;47.502;19.148;2023-12-20T15:43:23;8.13;;;4.57;;
76978;SDS011;65911;47.502;19.148;2023-12-20T15:46:27;9.25;;;4.82;;
76978;SDS011;65911;47.502;19.148;2023-12-20T15:49:29;9.43;;;5.23;;
76978;SDS011;65911;47.502;19.148;2023-12-20T15:52:32;10.60;;;4.95;;
76978;SDS011;65911;47.502;19.148;2023-12-20T15:55:34;9.13;;;5.13;;
76978;SDS011;65911;47.502;19.148;2023-12-20T15:58:37;8.75;;;4.75;;
76978;SDS011;65911;47.502;19.148;2023-12-20T16:01:39;7.97;;;4.32;;
76978;SDS011;65911;47.502;19.148;2023-12-20T16:04:42;7.43;;;4.70;;
76978;SDS011;65911;47.502;19.148;2023-12-20T16:07:44;8.55;;;4.47;;
76978;SDS011;65911;47.502;19.148;2023-12-20T16:10:47;8.70;;;4.57;;
76978;SDS011;65911;47.502;19.148;2023-12-20T16:13:49;8.07;;;4.55;;
76978;SDS011;65911;47.502;19.148;2023-12-20T16:16:52;6.50;;;4.40;;
76978;SDS011;65911;47.502;19.148;2023-12-20T16:19:55;8.80;;;4.93;;
76978;SDS011;65911;47.502;19.148;2023-12-20T16:22:58;10.32;;;5.15;;
76978;SDS011;65911;47.502;19.148;2023-12-20T16:26:00;11.60;;;5.43;;
76978;SDS011;65911;47.502;19.148;2023-12-20T16:29:02;8.93;;;5.30;;
76978;SDS011;65911;47.502;19.148;2023-12-20T16:32:05;8.55;;;5.35;;
76978;SDS011;65911;47.502;19.148;2023-12-20T16:35:07;9.25;;;5.32;;
76978;SDS011;65911;47.502;19.148;2023-12-20T16:38:10;9.90;;;5.55;;
76978;SDS011;65911;47.502;19.148;2023-12-20T16:41:12;10.17;;;5.40;;
76978;SDS011;65911;47.502;19.148;2023-12-20T16:44:15;10.77;;;6.20;;
76978;SDS011;65911;47.502;19.148;2023-12-20T16:47:18;10.90;;;5.85;;
76978;SDS011;65911;47.502;19.148;2023-12-20T16:50:20;10.23;;;5.87;;
76978;SDS011;65911;47.502;19.148;2023-12-20T16:53:23;9.60;;;5.90;;
76978;SDS011;65911;47.502;19.148;2023-12-20T16:56:25;10.52;;;6.03;;
76978;SDS011;65911;47.502;19.148;2023-12-20T16:59:27;13.63;;;6.75;;
76978;SDS011;65911;47.502;19.148;2023-12-20T17:02:30;9.63;;;5.75;;
76978;SDS011;65911;47.502;19.148;2023-12-20T17:05:32;10.63;;;6.70;;
76978;SDS011;65911;47.502;19.148;2023-12-20T17:08:35;10.10;;;6.18;;
76978;SDS011;65911;47.502;19.148;2023-12-20T17:11:37;10.73;;;5.70;;
76978;SDS011;65911;47.502;19.148;2023-12-20T17:14:40;11.15;;;6.45;;
76978;SDS011;65911;47.502;19.148;2023-12-20T17:17:42;12.43;;;5.80;;
76978;SDS011;65911;47.502;19.148;2023-12-20T17:20:47;10.73;;;6.20;;
76978;SDS011;65911;47.502;19.148;2023-12-20T17:23:49;9.88;;;6.15;;
76978;SDS011;65911;47.502;19.148;2023-12-20T17:26:52;12.57;;;6.18;;
76978;SDS011;65911;47.502;19.148;2023-12-20T17:30:08;11.00;;;6.10;;
76978;SDS011;65911;47.502;19.148;2023-12-20T17:33:11;11.93;;;6.32;;
76978;SDS011;65911;47.502;19.148;2023-12-20T17:36:13;12.13;;;6.72;;
76978;SDS011;65911;47.502;19.148;2023-12-20T17:39:18;11.65;;;7.45;;
76978;SDS011;65911;47.502;19.148;2023-12-20T17:42:20;13.07;;;7.13;;
76978;SDS011;65911;47.502;19.148;2023-12-20T17:45:23;11.25;;;7.05;;
76978;SDS011;65911;47.502;19.148;2023-12-20T17:48:25;11.18;;;6.45;;